Terminal Aerodrome Forecast
Issued by NWS

Home | Current Version | Previous Version | Text Only | Print | Product List | Glossary On
Versions: 1 2 3 4 5 6 7 8 9 10 11 12 13 14 15 16 17
000
FTUS46 KLOX 252000 AAA
TAFWJF
TAF AMD
KWJF 252036Z 2521/2618 27020G30KT P6SM BKN040 BKN100
      TEMPO 2521/2523 -RA
     FM260000 27030G40KT P6SM SCT040 BKN120
     FM260300 28025G35KT P6SM BKN150
     FM260800 28018G28KT P6SM SCT150=

USA.gov is the U.S. government's official web portal to all federal, state and local government web resources and services.